QFA714 YBAS-YPPH
Flight info
| Callsign | QFA714 |
|---|---|
| Flight time | N/A |
| Altitude | 32000 |
| Route | YOTHU W408 AYE DCT COPDI Q25 DALWU Q38 JULIM |
| Aircraft | B738/M-SDE2E3FGHIRWXY/LB1 |
Departure
| Time | 2026-04-20 04:31 |
|---|---|
| Airport | Alice Springs Airport (YBAS) |
Arrival
| Time | N/A |
|---|---|
| Airport | Perth International Airport (YPPH) |
| Time | Latitude | Longitude | Altitude | Speed | Heading |
|---|---|---|---|---|---|
| 2026-04-20 03:55 | -23.80281 | 133.90125 | 1781 ft | 0 kts | 74° |
| 2026-04-20 04:27 | -23.80280 | 133.90126 | 1781 ft | 1 kts | 70° |
| 2026-04-20 04:28 | -23.80268 | 133.90121 | 1779 ft | 3 kts | 301° |
| 2026-04-20 04:28 | -23.80285 | 133.90089 | 1781 ft | 8 kts | 241° |
| 2026-04-20 04:28 | -23.80274 | 133.90016 | 1782 ft | 12 kts | 300° |
| 2026-04-20 04:28 | -23.80221 | 133.89913 | 1782 ft | 20 kts | 299° |
| 2026-04-20 04:29 | -23.80153 | 133.89786 | 1782 ft | 19 kts | 301° |
| 2026-04-20 04:29 | -23.80087 | 133.89664 | 1783 ft | 18 kts | 301° |
| 2026-04-20 04:29 | -23.80025 | 133.89549 | 1784 ft | 17 kts | 300° |
| 2026-04-20 04:29 | -23.79992 | 133.89484 | 1784 ft | 5 kts | 294° |
| 2026-04-20 04:30 | -23.79982 | 133.89438 | 1784 ft | 10 kts | 274° |
| 2026-04-20 04:30 | -23.80014 | 133.89350 | 1784 ft | 17 kts | 241° |
| 2026-04-20 04:30 | -23.80054 | 133.89294 | 1784 ft | 3 kts | 196° |
| 2026-04-20 04:30 | -23.80104 | 133.89328 | 1783 ft | 16 kts | 124° |
| 2026-04-20 04:31 | -23.80212 | 133.89547 | 1782 ft | 63 kts | 120° |
| 2026-04-20 04:31 | -23.80572 | 133.90212 | 1782 ft | 138 kts | 120° |
| 2026-04-20 04:31 | -23.81162 | 133.91315 | 1870 ft | 192 kts | 121° |
| 2026-04-20 04:31 | -23.81897 | 133.92628 | 2524 ft | 211 kts | 122° |
| 2026-04-20 04:32 | -23.82662 | 133.94042 | 3292 ft | 221 kts | 120° |
| 2026-04-20 04:32 | -23.83498 | 133.95474 | 4099 ft | 227 kts | 134° |
| 2026-04-20 04:32 | -23.84887 | 133.96325 | 4524 ft | 250 kts | 169° |
| 2026-04-20 04:32 | -23.85972 | 133.96343 | 4615 ft | 270 kts | 190° |
| 2026-04-20 04:33 | -23.86348 | 133.96257 | 4664 ft | 272 kts | 195° |
| 2026-04-20 04:33 | -23.87989 | 133.95366 | 4847 ft | 256 kts | 222° |
| 2026-04-20 04:33 | -23.88949 | 133.93816 | 4937 ft | 245 kts | 246° |
| 2026-04-20 04:33 | -23.89622 | 133.92097 | 5225 ft | 254 kts | 247° |
| 2026-04-20 04:34 | -23.90327 | 133.90248 | 5579 ft | 270 kts | 248° |
| 2026-04-20 04:34 | -23.91058 | 133.88336 | 6317 ft | 273 kts | 247° |
| 2026-04-20 04:34 | -23.91795 | 133.86420 | 7154 ft | 274 kts | 247° |
| 2026-04-20 04:34 | -23.92544 | 133.84487 | 7912 ft | 278 kts | 247° |
| 2026-04-20 04:35 | -23.93305 | 133.82533 | 8650 ft | 281 kts | 247° |
| 2026-04-20 04:35 | -23.94069 | 133.80581 | 9384 ft | 284 kts | 247° |
| 2026-04-20 04:35 | -23.94852 | 133.78580 | 10091 ft | 289 kts | 247° |
| 2026-04-20 04:35 | -23.95669 | 133.76493 | 10350 ft | 310 kts | 247° |
| 2026-04-20 04:36 | -23.97486 | 133.71849 | 10707 ft | 353 kts | 247° |
| 2026-04-20 04:36 | -23.98352 | 133.69266 | 10929 ft | 370 kts | 259° |
| 2026-04-20 04:36 | -23.98580 | 133.66443 | 11488 ft | 376 kts | 267° |
| 2026-04-20 04:37 | -23.98707 | 133.63614 | 12132 ft | 378 kts | 266° |
| 2026-04-20 04:37 | -23.98878 | 133.60731 | 12755 ft | 382 kts | 266° |
| 2026-04-20 04:37 | -23.99075 | 133.57824 | 13348 ft | 386 kts | 265° |
| 2026-04-20 04:37 | -23.99368 | 133.54896 | 13921 ft | 390 kts | 257° |
| 2026-04-20 04:38 | -24.00439 | 133.52180 | 14500 ft | 392 kts | 238° |
| 2026-04-20 04:38 | -24.01942 | 133.49680 | 15114 ft | 395 kts | 236° |
| 2026-04-20 04:38 | -24.03480 | 133.47171 | 15655 ft | 399 kts | 236° |
| 2026-04-20 04:38 | -24.05022 | 133.44636 | 16200 ft | 402 kts | 237° |
| 2026-04-20 04:39 | -24.06564 | 133.42070 | 16749 ft | 405 kts | 237° |
| 2026-04-20 04:39 | -24.08105 | 133.39481 | 17257 ft | 408 kts | 237° |
| 2026-04-20 04:39 | -24.09635 | 133.36900 | 17747 ft | 411 kts | 237° |
| 2026-04-20 04:39 | -24.11194 | 133.34266 | 18240 ft | 414 kts | 237° |
| 2026-04-20 04:40 | -24.12723 | 133.31578 | 18705 ft | 417 kts | 243° |
| 2026-04-20 04:40 | -24.13558 | 133.28540 | 19151 ft | 420 kts | 262° |
| 2026-04-20 04:40 | -24.14191 | 133.25420 | 19627 ft | 423 kts | 247° |
| 2026-04-20 04:40 | -24.15781 | 133.22717 | 20042 ft | 426 kts | 227° |
| 2026-04-20 04:41 | -24.17863 | 133.20400 | 20515 ft | 428 kts | 225° |
| 2026-04-20 04:41 | -24.19923 | 133.18029 | 20914 ft | 431 kts | 228° |
| 2026-04-20 04:41 | -24.21867 | 133.15512 | 21294 ft | 435 kts | 232° |
| 2026-04-20 04:41 | -24.23666 | 133.12899 | 21689 ft | 437 kts | 234° |
| 2026-04-20 04:42 | -24.25405 | 133.10156 | 22080 ft | 439 kts | 236° |
| 2026-04-20 04:42 | -24.27092 | 133.07357 | 22443 ft | 442 kts | 237° |
| 2026-04-20 04:42 | -24.28762 | 133.04517 | 22801 ft | 444 kts | 237° |
| 2026-04-20 04:42 | -24.30429 | 133.01656 | 23159 ft | 446 kts | 237° |
| 2026-04-20 04:43 | -24.32055 | 132.98864 | 23508 ft | 448 kts | 237° |
| 2026-04-20 04:43 | -24.33739 | 132.95979 | 23862 ft | 450 kts | 237° |
| 2026-04-20 04:43 | -24.35434 | 132.93082 | 24175 ft | 453 kts | 237° |
| 2026-04-20 04:43 | -24.37143 | 132.90170 | 24508 ft | 455 kts | 237° |
| 2026-04-20 04:44 | -24.38861 | 132.87251 | 24813 ft | 457 kts | 237° |
| 2026-04-20 04:44 | -24.40564 | 132.84355 | 25104 ft | 459 kts | 237° |
| 2026-04-20 04:44 | -24.42295 | 132.81406 | 25390 ft | 461 kts | 237° |
| 2026-04-20 04:44 | -24.44034 | 132.78440 | 25667 ft | 463 kts | 237° |
| 2026-04-20 04:45 | -24.45773 | 132.75452 | 25933 ft | 465 kts | 237° |
| 2026-04-20 04:45 | -24.47521 | 132.72457 | 26203 ft | 467 kts | 237° |
| 2026-04-20 04:45 | -24.49276 | 132.69452 | 26475 ft | 469 kts | 237° |
| 2026-04-20 04:45 | -24.51039 | 132.66436 | 26731 ft | 470 kts | 237° |
| 2026-04-20 04:46 | -24.52811 | 132.63405 | 26977 ft | 472 kts | 237° |
| 2026-04-20 04:46 | -24.54585 | 132.60366 | 27215 ft | 474 kts | 237° |
| 2026-04-20 04:46 | -24.56339 | 132.57359 | 27523 ft | 473 kts | 237° |
| 2026-04-20 04:46 | -24.58110 | 132.54322 | 27892 ft | 472 kts | 237° |
| 2026-04-20 04:47 | -24.59877 | 132.51289 | 28251 ft | 470 kts | 238° |
| 2026-04-20 04:47 | -24.61504 | 132.48178 | 28543 ft | 470 kts | 245° |
| 2026-04-20 04:47 | -24.62807 | 132.44879 | 28848 ft | 470 kts | 248° |
| 2026-04-20 04:47 | -24.64030 | 132.41555 | 29189 ft | 469 kts | 248° |
| 2026-04-20 04:48 | -24.65232 | 132.38228 | 29523 ft | 468 kts | 248° |
| 2026-04-20 04:48 | -24.66437 | 132.34908 | 29828 ft | 468 kts | 248° |
| 2026-04-20 04:48 | -24.67655 | 132.31590 | 30016 ft | 470 kts | 248° |
| 2026-04-20 04:49 | -24.70121 | 132.24962 | 29999 ft | 472 kts | 248° |
| 2026-04-20 04:49 | -24.72609 | 132.18335 | 29996 ft | 466 kts | 248° |
| 2026-04-20 04:50 | -24.75082 | 132.11751 | 30016 ft | 466 kts | 248° |
| 2026-04-20 04:50 | -24.77551 | 132.05158 | 30005 ft | 466 kts | 248° |
| 2026-04-20 04:51 | -24.79964 | 131.98702 | 30001 ft | 467 kts | 248° |
| 2026-04-20 04:51 | -24.82431 | 131.92092 | 29999 ft | 467 kts | 248° |
| 2026-04-20 04:52 | -24.84895 | 131.85479 | 30001 ft | 467 kts | 248° |
| 2026-04-20 04:52 | -24.87359 | 131.78854 | 30001 ft | 468 kts | 248° |
| 2026-04-20 04:53 | -24.89805 | 131.72269 | 30000 ft | 468 kts | 248° |
| 2026-04-20 04:53 | -24.92263 | 131.65638 | 30001 ft | 468 kts | 248° |
| 2026-04-20 04:54 | -24.94721 | 131.59000 | 30000 ft | 468 kts | 248° |
| 2026-04-20 04:54 | -24.97176 | 131.52359 | 30000 ft | 468 kts | 248° |
| 2026-04-20 04:55 | -24.99609 | 131.45766 | 30001 ft | 468 kts | 248° |
| 2026-04-20 04:55 | -25.02054 | 131.39130 | 30000 ft | 467 kts | 248° |
| 2026-04-20 04:56 | -25.04497 | 131.32488 | 30001 ft | 467 kts | 248° |
| 2026-04-20 04:56 | -25.06934 | 131.25850 | 30002 ft | 467 kts | 248° |
| 2026-04-20 04:57 | -25.09370 | 131.19208 | 30001 ft | 467 kts | 248° |
| 2026-04-20 04:57 | -25.11801 | 131.12567 | 30015 ft | 475 kts | 248° |
| 2026-04-20 04:58 | -25.14298 | 131.05732 | 30004 ft | 485 kts | 248° |
| 2026-04-20 04:58 | -25.16772 | 130.98953 | 29985 ft | 475 kts | 248° |
| 2026-04-20 04:59 | -25.19282 | 130.92308 | 29995 ft | 466 kts | 246° |
| 2026-04-20 04:59 | -25.21880 | 130.85814 | 30005 ft | 466 kts | 246° |
| 2026-04-20 05:00 | -25.24503 | 130.79266 | 30001 ft | 466 kts | 246° |
| 2026-04-20 05:00 | -25.27106 | 130.72706 | 30001 ft | 467 kts | 246° |
| 2026-04-20 05:01 | -25.29699 | 130.66129 | 30001 ft | 467 kts | 246° |
| 2026-04-20 05:01 | -25.32290 | 130.59537 | 30016 ft | 468 kts | 246° |
| 2026-04-20 05:02 | -25.34862 | 130.52983 | 30001 ft | 468 kts | 246° |
| 2026-04-20 05:02 | -25.37450 | 130.46380 | 30000 ft | 468 kts | 246° |
| 2026-04-20 05:03 | -25.40038 | 130.39768 | 30001 ft | 468 kts | 246° |
| 2026-04-20 05:03 | -25.42623 | 130.33153 | 30001 ft | 469 kts | 246° |
| 2026-04-20 05:04 | -25.45206 | 130.26534 | 30000 ft | 469 kts | 246° |
| 2026-04-20 05:04 | -25.47770 | 130.19953 | 30000 ft | 469 kts | 247° |
| 2026-04-20 05:05 | -25.50347 | 130.13326 | 30000 ft | 469 kts | 247° |
| 2026-04-20 05:05 | -25.52919 | 130.06703 | 30001 ft | 469 kts | 247° |
| 2026-04-20 05:06 | -25.55491 | 130.00070 | 30001 ft | 469 kts | 247° |
| 2026-04-20 05:06 | -25.58027 | 129.93519 | 30016 ft | 472 kts | 247° |
| 2026-04-20 05:07 | -25.60618 | 129.86815 | 30009 ft | 480 kts | 247° |
| 2026-04-20 05:07 | -25.63257 | 129.79974 | 30001 ft | 485 kts | 247° |
| 2026-04-20 05:08 | -25.65910 | 129.73088 | 29995 ft | 486 kts | 247° |
| 2026-04-20 05:08 | -25.68561 | 129.66195 | 30013 ft | 487 kts | 247° |
| 2026-04-20 05:09 | -25.71161 | 129.59423 | 29987 ft | 471 kts | 247° |
| 2026-04-20 05:09 | -25.73705 | 129.52786 | 30001 ft | 466 kts | 247° |
| 2026-04-20 05:10 | -25.76241 | 129.46160 | 30001 ft | 466 kts | 247° |
| 2026-04-20 05:10 | -25.78772 | 129.39536 | 30015 ft | 466 kts | 247° |
| 2026-04-20 05:11 | -25.81300 | 129.32909 | 30002 ft | 467 kts | 247° |
| 2026-04-20 05:11 | -25.83811 | 129.26316 | 30000 ft | 467 kts | 247° |
| 2026-04-20 05:12 | -25.86337 | 129.19674 | 30002 ft | 467 kts | 247° |
| 2026-04-20 05:12 | -25.88862 | 129.13021 | 30016 ft | 468 kts | 247° |
| 2026-04-20 05:13 | -25.91386 | 129.06361 | 30001 ft | 468 kts | 247° |
| 2026-04-20 05:13 | -25.93861 | 128.99821 | 30003 ft | 468 kts | 247° |
| 2026-04-20 05:14 | -25.96377 | 128.93162 | 30001 ft | 468 kts | 247° |
| 2026-04-20 05:14 | -25.98895 | 128.86485 | 29999 ft | 469 kts | 247° |
| 2026-04-20 05:15 | -26.01408 | 128.79813 | 30001 ft | 469 kts | 247° |
| 2026-04-20 05:15 | -26.03921 | 128.73127 | 30001 ft | 468 kts | 247° |
| 2026-04-20 05:16 | -26.06413 | 128.66487 | 30001 ft | 468 kts | 247° |
| 2026-04-20 05:16 | -26.08917 | 128.59803 | 30001 ft | 468 kts | 248° |
| 2026-04-20 05:17 | -26.11424 | 128.53102 | 30014 ft | 472 kts | 248° |
| 2026-04-20 05:17 | -26.13967 | 128.46293 | 30004 ft | 480 kts | 248° |
| 2026-04-20 05:18 | -26.16539 | 128.39393 | 30001 ft | 485 kts | 248° |
| 2026-04-20 05:18 | -26.19104 | 128.32501 | 29987 ft | 481 kts | 248° |
| 2026-04-20 05:19 | -26.21615 | 128.25743 | 29992 ft | 467 kts | 248° |
| 2026-04-20 05:19 | -26.24088 | 128.19076 | 30011 ft | 465 kts | 248° |
| 2026-04-20 05:20 | -26.26557 | 128.12406 | 30014 ft | 467 kts | 248° |
| 2026-04-20 05:20 | -26.29022 | 128.05739 | 30016 ft | 472 kts | 248° |
| 2026-04-20 05:21 | -26.31504 | 127.99013 | 30012 ft | 480 kts | 248° |
| 2026-04-20 05:21 | -26.34053 | 127.92095 | 30000 ft | 485 kts | 248° |
| 2026-04-20 05:22 | -26.36616 | 127.85124 | 29996 ft | 484 kts | 248° |
| 2026-04-20 05:22 | -26.37878 | 127.81689 | 29984 ft | 473 kts | 248° |
| 2026-04-20 05:22 | -26.39098 | 127.78365 | 29989 ft | 467 kts | 248° |
| 2026-04-20 05:23 | -26.41547 | 127.71682 | 30012 ft | 465 kts | 248° |
| 2026-04-20 05:23 | -26.43989 | 127.65008 | 29999 ft | 465 kts | 248° |
| 2026-04-20 05:24 | -26.46429 | 127.58327 | 30001 ft | 465 kts | 248° |
| 2026-04-20 05:24 | -26.48865 | 127.51646 | 30002 ft | 465 kts | 248° |
| 2026-04-20 05:25 | -26.51285 | 127.45000 | 30000 ft | 465 kts | 248° |
| 2026-04-20 05:25 | -26.53718 | 127.38303 | 29999 ft | 466 kts | 248° |
| 2026-04-20 05:26 | -26.56150 | 127.31602 | 30000 ft | 466 kts | 248° |
| 2026-04-20 05:26 | -26.58581 | 127.24888 | 30011 ft | 466 kts | 248° |
| 2026-04-20 05:27 | -26.60995 | 127.18212 | 30001 ft | 467 kts | 248° |
| 2026-04-20 05:27 | -26.63422 | 127.11486 | 30001 ft | 467 kts | 248° |
| 2026-04-20 05:28 | -26.65847 | 127.04756 | 30002 ft | 467 kts | 248° |
| 2026-04-20 05:28 | -26.68232 | 126.98127 | 30000 ft | 467 kts | 248° |
| 2026-04-20 05:29 | -26.70652 | 126.91387 | 30000 ft | 467 kts | 248° |
| 2026-04-20 05:29 | -26.73052 | 126.84689 | 30000 ft | 467 kts | 248° |
| 2026-04-20 05:30 | -26.75467 | 126.77942 | 30002 ft | 467 kts | 248° |
| 2026-04-20 05:30 | -26.77877 | 126.71193 | 30000 ft | 467 kts | 248° |
| 2026-04-20 05:31 | -26.80285 | 126.64440 | 30000 ft | 467 kts | 248° |